createdAt,value
2022-10-18T00:00:46.583Z,100.00
2022-10-18T00:05:51.187Z,100.00
2022-10-18T00:10:54.679Z,100.00
2022-10-18T00:15:59.705Z,100.00
2022-10-18T00:21:06.380Z,100.00
2022-10-18T00:26:11.962Z,100.00
2022-10-18T00:31:17.607Z,100.00
2022-10-18T00:36:22.045Z,100.00
2022-10-18T00:41:28.149Z,100.00
2022-10-18T00:46:32.906Z,100.00
2022-10-18T00:51:44.217Z,100.00
2022-10-18T00:56:47.416Z,100.00
2022-10-18T01:01:50.216Z,100.00
2022-10-18T01:07:00.648Z,100.00
2022-10-18T01:12:17.411Z,100.00
2022-10-18T01:17:26.517Z,100.00
2022-10-18T01:22:38.447Z,100.00
2022-10-18T01:27:54.251Z,100.00
2022-10-18T01:33:04.411Z,100.00
2022-10-18T01:38:12.530Z,100.00
2022-10-18T01:43:17.754Z,100.00
2022-10-18T01:48:21.968Z,100.00
2022-10-18T01:53:28.131Z,100.00
2022-10-18T01:58:37.887Z,100.00
2022-10-18T02:03:46.994Z,100.00
2022-10-18T02:08:55.160Z,100.00
2022-10-18T02:14:01.319Z,100.00
2022-10-18T02:19:11.373Z,100.00
2022-10-18T02:24:16.223Z,100.00
2022-10-18T02:29:19.200Z,100.00
2022-10-18T02:34:24.930Z,100.00
2022-10-18T02:39:31.810Z,100.00
2022-10-18T02:44:34.612Z,100.00
2022-10-18T02:49:38.718Z,100.00
2022-10-18T02:54:41.521Z,100.00
2022-10-18T02:59:44.302Z,100.00
2022-10-18T03:04:48.364Z,100.00
2022-10-18T03:09:51.054Z,100.00
2022-10-18T03:14:53.751Z,100.00
2022-10-18T03:19:57.819Z,100.00
2022-10-18T03:25:00.719Z,100.00
2022-10-18T03:30:03.497Z,100.00
2022-10-18T03:35:09.162Z,100.00
2022-10-18T03:40:12.544Z,100.00
2022-10-18T03:45:15.305Z,100.00
2022-10-18T03:50:19.677Z,100.00
2022-10-18T03:55:22.486Z,100.00
2022-10-18T04:00:25.231Z,100.00
2022-10-18T04:05:31.022Z,100.00
2022-10-18T04:10:33.793Z,100.00
2022-10-18T04:15:36.669Z,100.00
2022-10-18T04:20:40.756Z,100.00
2022-10-18T04:30:52.016Z,100.00
2022-10-18T04:35:56.117Z,100.00
2022-10-18T04:40:58.838Z,100.00
2022-10-18T04:46:01.565Z,100.00
2022-10-18T04:51:05.767Z,100.00
2022-10-18T04:56:09.756Z,100.00
2022-10-18T05:01:12.849Z,100.00
2022-10-18T05:06:17.022Z,100.00
2022-10-18T05:11:19.767Z,100.00
2022-10-18T05:16:22.633Z,100.00
2022-10-18T05:21:26.742Z,100.00
2022-10-18T05:26:29.449Z,100.00
2022-10-18T05:31:32.261Z,100.00
2022-10-18T05:36:36.371Z,100.00
2022-10-18T05:41:39.100Z,100.00
2022-10-18T05:46:41.879Z,100.00
2022-10-18T05:51:45.990Z,100.00
2022-10-18T05:56:48.723Z,100.00
2022-10-18T06:01:51.427Z,100.00
2022-10-18T06:06:56.176Z,100.00
2022-10-18T06:11:58.913Z,100.00
2022-10-18T06:17:01.675Z,100.00
2022-10-18T06:22:05.767Z,100.00
2022-10-18T06:27:09.559Z,100.00
2022-10-18T06:32:12.563Z,100.00
2022-10-18T06:37:16.674Z,100.00
2022-10-18T06:42:21.899Z,100.00
2022-10-18T06:47:25.598Z,100.00
2022-10-18T06:52:29.947Z,100.00
2022-10-18T06:57:32.864Z,100.00
2022-10-18T07:02:35.616Z,100.00
2022-10-18T07:07:39.970Z,100.00
2022-10-18T07:12:42.679Z,100.00
2022-10-18T07:17:46.391Z,100.00
2022-10-18T07:22:50.538Z,100.00
2022-10-18T07:27:53.279Z,100.00
2022-10-18T07:32:55.993Z,100.00
2022-10-18T07:38:00.099Z,100.00
2022-10-18T07:43:04.668Z,100.00
2022-10-18T07:48:07.900Z,100.00
2022-10-18T07:53:11.958Z,100.00
2022-10-18T07:58:14.665Z,100.00
2022-10-18T08:03:17.429Z,100.00
2022-10-18T08:08:21.803Z,100.00
2022-10-18T08:13:24.513Z,100.00
2022-10-18T08:18:27.229Z,100.00
2022-10-18T08:23:31.697Z,100.00
2022-10-18T08:28:36.677Z,100.00
2022-10-18T08:33:40.404Z,100.00
2022-10-18T08:38:44.902Z,100.00
2022-10-18T08:43:56.887Z,100.00
2022-10-18T08:49:01.058Z,100.00
2022-10-18T08:54:11.649Z,100.00
2022-10-18T08:59:14.762Z,100.00
2022-10-18T09:04:32.763Z,100.00
2022-10-18T09:09:43.127Z,100.00
2022-10-18T09:15:04.202Z,100.00
2022-10-18T09:20:22.919Z,100.00
2022-10-18T09:25:34.371Z,100.00
2022-10-18T09:30:44.704Z,100.00
2022-10-18T09:35:52.253Z,100.00
2022-10-18T09:41:00.444Z,100.00
2022-10-18T09:46:05.032Z,100.00
2022-10-18T09:51:13.499Z,100.00
2022-10-18T09:56:23.332Z,100.00
2022-10-18T10:01:28.117Z,100.00
2022-10-18T10:06:34.545Z,100.00
2022-10-18T10:11:40.533Z,100.00
2022-10-18T10:16:50.842Z,100.00
2022-10-18T10:21:58.192Z,100.00
2022-10-18T10:27:05.591Z,100.00
2022-10-18T10:32:14.480Z,100.00
2022-10-18T10:37:27.189Z,100.00
2022-10-18T10:42:33.569Z,100.00
2022-10-18T10:47:38.077Z,100.00
2022-10-18T10:52:43.563Z,100.00
2022-10-18T10:57:50.660Z,100.00
2022-10-18T11:03:27.414Z,100.00
2022-10-18T11:08:36.951Z,100.00
2022-10-18T11:13:57.011Z,100.00
2022-10-18T11:19:37.023Z,100.00
2022-10-18T11:24:39.870Z,100.00
2022-10-18T11:30:16.507Z,100.00
2022-10-18T11:35:38.833Z,100.00
2022-10-18T11:40:59.339Z,100.00
2022-10-18T11:46:12.017Z,99.92
2022-10-18T11:51:34.233Z,98.46
2022-10-18T11:56:48.947Z,95.44
2022-10-18T12:02:04.971Z,93.41
2022-10-18T12:07:11.484Z,93.38
2022-10-18T12:12:23.109Z,92.01
2022-10-18T12:17:43.902Z,91.36
2022-10-18T12:23:04.830Z,91.68
2022-10-18T12:28:27.660Z,90.73
2022-10-18T12:33:45.718Z,90.38
2022-10-18T12:38:51.858Z,90.09
2022-10-18T12:43:58.147Z,88.95
2022-10-18T12:49:06.020Z,87.41
2022-10-18T12:54:13.037Z,87.44
2022-10-18T12:59:42.145Z,86.33
2022-10-18T13:04:46.788Z,85.18
2022-10-18T13:10:41.432Z,84.78
2022-10-18T13:15:48.320Z,84.44
2022-10-18T13:21:03.888Z,83.08
2022-10-18T13:26:20.976Z,83.10
2022-10-18T13:31:29.967Z,82.67
2022-10-18T13:36:34.563Z,80.53
2022-10-18T13:42:10.736Z,80.64
2022-10-18T13:47:16.311Z,80.97
2022-10-18T13:52:28.193Z,80.73
2022-10-18T13:57:55.040Z,81.07
2022-10-18T14:03:43.998Z,81.52
2022-10-18T14:08:47.447Z,82.28
2022-10-18T14:13:55.992Z,81.24
2022-10-18T14:19:08.138Z,81.95
2022-10-18T14:24:20.152Z,81.14
2022-10-18T14:29:22.892Z,81.37
2022-10-18T14:34:26.825Z,80.68
2022-10-18T14:39:32.740Z,81.39
2022-10-18T14:44:35.776Z,80.78
2022-10-18T14:49:44.792Z,81.12
2022-10-18T14:54:49.191Z,81.13
2022-10-18T14:59:58.172Z,81.94
2022-10-18T15:05:17.594Z,82.64
2022-10-18T15:10:25.062Z,83.49
2022-10-18T15:15:31.758Z,84.30
2022-10-18T15:20:39.780Z,84.61
2022-10-18T15:25:44.552Z,85.15
2022-10-18T15:30:50.608Z,85.36
2022-10-18T15:35:54.379Z,85.30
2022-10-18T15:40:58.711Z,85.42
2022-10-18T15:46:06.617Z,85.63
2022-10-18T15:51:13.861Z,85.64
2022-10-18T15:56:32.759Z,85.83
2022-10-18T16:01:39.040Z,86.62
2022-10-18T16:06:43.581Z,86.68
2022-10-18T16:11:55.781Z,87.20
2022-10-18T16:17:01.796Z,87.47
2022-10-18T16:22:06.934Z,88.00
2022-10-18T16:27:11.802Z,88.35
2022-10-18T16:32:14.596Z,88.43
2022-10-18T16:37:17.796Z,88.89
2022-10-18T16:42:24.256Z,88.97
2022-10-18T16:47:29.269Z,89.06
2022-10-18T16:52:32.315Z,89.23
2022-10-18T16:57:36.802Z,89.45
2022-10-18T17:02:39.707Z,89.58
2022-10-18T17:07:43.465Z,89.81
2022-10-18T17:12:48.093Z,89.95
2022-10-18T17:17:50.966Z,90.08
2022-10-18T17:22:53.884Z,90.19
2022-10-18T17:27:58.041Z,90.37
2022-10-18T17:33:00.794Z,90.24
2022-10-18T17:38:04.278Z,90.41
2022-10-18T17:43:08.375Z,89.94
2022-10-18T17:48:11.087Z,90.07
2022-10-18T17:53:13.938Z,89.87
2022-10-18T17:58:18.123Z,89.88
2022-10-18T18:03:21.526Z,89.50
2022-10-18T18:08:25.476Z,89.10
2022-10-18T18:13:29.852Z,88.23
2022-10-18T18:18:32.600Z,87.78
2022-10-18T18:23:35.383Z,87.35
2022-10-18T18:28:39.904Z,86.71
2022-10-18T18:33:43.492Z,86.90
2022-10-18T18:38:47.110Z,87.30
2022-10-18T18:43:53.814Z,87.47
2022-10-18T18:48:59.019Z,87.42
2022-10-18T18:54:01.855Z,87.58
2022-10-18T18:59:06.491Z,87.64
2022-10-18T19:04:10.260Z,87.85
2022-10-18T19:09:19.201Z,87.31
2022-10-18T19:14:25.561Z,87.18
2022-10-18T19:19:31.343Z,86.80
2022-10-18T19:24:34.068Z,86.05
2022-10-18T19:29:40.569Z,85.11
2022-10-18T19:34:44.305Z,84.72
2022-10-18T19:39:47.078Z,84.57
2022-10-18T19:44:51.166Z,83.25
2022-10-18T19:49:53.864Z,83.20
2022-10-18T19:54:56.602Z,83.39
2022-10-18T20:00:01.006Z,83.48
2022-10-18T20:05:04.801Z,83.81
2022-10-18T20:10:09.281Z,84.16
2022-10-18T20:15:13.638Z,84.56
2022-10-18T20:20:16.367Z,84.88
2022-10-18T20:25:19.172Z,85.39
2022-10-18T20:30:23.291Z,86.01
2022-10-18T20:35:26.296Z,86.40
2022-10-18T20:40:29.019Z,87.15
2022-10-18T20:45:33.112Z,87.34
2022-10-18T20:50:36.218Z,87.58
2022-10-18T20:55:39.061Z,87.41
2022-10-18T21:00:43.173Z,87.27
2022-10-18T21:05:45.897Z,86.59
2022-10-18T21:10:48.582Z,86.51
2022-10-18T21:15:59.705Z,86.47
2022-10-18T21:21:10.689Z,86.60
2022-10-18T21:26:15.804Z,86.53
2022-10-18T21:31:22.770Z,86.49
2022-10-18T21:36:26.158Z,86.64
2022-10-18T21:41:28.863Z,86.79
2022-10-18T21:46:32.941Z,86.74
2022-10-18T21:51:36.301Z,87.06
2022-10-18T21:56:39.091Z,87.28
2022-10-18T22:01:44.609Z,87.56
2022-10-18T22:06:47.384Z,87.73
2022-10-18T22:11:52.968Z,88.01
2022-10-18T22:16:57.064Z,88.52
2022-10-18T22:21:59.770Z,88.61
2022-10-18T22:27:02.471Z,88.74
2022-10-18T22:32:06.752Z,89.06
2022-10-18T22:37:09.502Z,89.55
2022-10-18T22:42:12.273Z,90.40
2022-10-18T22:47:16.332Z,93.15
2022-10-18T22:52:19.057Z,93.40
2022-10-18T22:57:21.778Z,93.61
2022-10-18T23:02:25.843Z,93.37
2022-10-18T23:07:28.551Z,93.48
2022-10-18T23:12:31.550Z,94.02
2022-10-18T23:17:36.249Z,94.51
2022-10-18T23:22:39.271Z,94.98
2022-10-18T23:32:51.176Z,95.27
2022-10-18T23:37:53.872Z,95.08
2022-10-18T23:42:56.568Z,95.03
2022-10-18T23:48:00.635Z,94.89
2022-10-18T23:53:03.409Z,94.78
2022-10-18T23:58:06.162Z,95.10
